createdAt,value
2023-02-18T00:01:08.616Z,4.70
2023-02-18T00:04:11.934Z,4.60
2023-02-18T00:07:15.210Z,4.90
2023-02-18T00:10:18.702Z,5.00
2023-02-18T00:13:21.872Z,8.40
2023-02-18T00:16:26.247Z,6.10
2023-02-18T00:19:29.487Z,4.20
2023-02-18T00:22:32.821Z,3.20
2023-02-18T00:25:36.168Z,2.80
2023-02-18T00:28:39.397Z,3.20
2023-02-18T00:31:42.933Z,2.90
2023-02-18T00:34:46.195Z,2.70
2023-02-18T00:37:52.080Z,3.10
2023-02-18T00:40:55.347Z,3.10
2023-02-18T00:43:58.547Z,2.70
2023-02-18T00:47:01.803Z,2.40
2023-02-18T00:50:05.562Z,2.50
2023-02-18T00:53:08.994Z,1.70
2023-02-18T00:56:12.471Z,2.20
2023-02-18T00:59:15.758Z,1.40
2023-02-18T01:02:19.684Z,1.90
2023-02-18T01:05:22.923Z,1.80
2023-02-18T01:08:26.203Z,1.80
2023-02-18T01:11:29.497Z,1.70
2023-02-18T01:14:32.739Z,1.80
2023-02-18T01:17:36.083Z,1.80
2023-02-18T01:20:43.510Z,1.50
2023-02-18T01:23:46.837Z,1.60
2023-02-18T01:26:52.571Z,1.30
2023-02-18T01:29:56.008Z,1.70
2023-02-18T01:33:00.430Z,1.80
2023-02-18T01:36:05.028Z,1.50
2023-02-18T01:39:08.342Z,1.10
2023-02-18T01:42:23.144Z,1.20
2023-02-18T01:45:47.703Z,1.70
2023-02-18T01:49:01.493Z,1.40
2023-02-18T01:52:15.827Z,0.90
2023-02-18T01:55:19.087Z,0.90
2023-02-18T01:58:22.424Z,1.00
2023-02-18T02:01:26.896Z,6.80
2023-02-18T02:04:30.648Z,1.30
2023-02-18T02:07:34.017Z,0.90
2023-02-18T02:11:12.811Z,0.80
2023-02-18T02:14:44.077Z,0.90
2023-02-18T02:18:06.076Z,0.70
2023-02-18T02:21:35.359Z,0.90
2023-02-18T02:25:08.935Z,0.70
2023-02-18T02:28:24.412Z,0.60
2023-02-18T02:31:51.939Z,0.50
2023-02-18T02:35:10.977Z,0.70
2023-02-18T02:38:32.974Z,1.10
2023-02-18T02:41:55.186Z,0.60
2023-02-18T02:45:14.889Z,0.70
2023-02-18T02:48:23.682Z,0.60
2023-02-18T02:51:36.162Z,0.60
2023-02-18T02:54:39.982Z,0.80
2023-02-18T02:57:50.908Z,0.80
2023-02-18T03:01:06.250Z,1.00
2023-02-18T03:04:45.363Z,1.10
2023-02-18T03:08:12.044Z,0.90
2023-02-18T03:11:17.839Z,1.30
2023-02-18T03:14:33.191Z,1.00
2023-02-18T03:17:56.168Z,0.70
2023-02-18T03:21:08.773Z,0.70
2023-02-18T03:24:17.928Z,0.70
2023-02-18T03:27:29.117Z,0.80
2023-02-18T03:34:11.336Z,0.50
2023-02-18T03:37:16.218Z,1.10
2023-02-18T03:40:19.918Z,0.90
2023-02-18T03:43:23.979Z,1.00
2023-02-18T03:46:28.945Z,0.90
2023-02-18T03:49:32.276Z,0.60
2023-02-18T03:52:36.817Z,0.80
2023-02-18T03:55:40.183Z,0.90
2023-02-18T03:58:43.493Z,1.00
2023-02-18T04:01:46.817Z,0.90
2023-02-18T04:04:50.019Z,0.80
2023-02-18T04:07:53.448Z,0.70
2023-02-18T04:10:56.730Z,0.80
2023-02-18T04:13:59.963Z,0.80
2023-02-18T04:17:03.395Z,0.90
2023-02-18T04:20:07.584Z,1.00
2023-02-18T04:23:10.818Z,1.30
2023-02-18T04:26:14.187Z,0.70
2023-02-18T04:29:17.341Z,0.90
2023-02-18T04:32:20.593Z,0.90
2023-02-18T04:35:23.916Z,1.00
2023-02-18T04:38:27.161Z,1.10
2023-02-18T04:41:30.714Z,1.00
2023-02-18T04:44:33.869Z,1.00
2023-02-18T04:47:37.101Z,1.00
2023-02-18T04:50:40.398Z,1.10
2023-02-18T04:53:43.667Z,0.80
2023-02-18T04:56:46.872Z,0.60
2023-02-18T04:59:50.062Z,0.50
2023-02-18T05:02:53.232Z,0.80
2023-02-18T05:05:56.772Z,0.70
2023-02-18T05:09:00.024Z,0.60
2023-02-18T05:12:03.451Z,0.90
2023-02-18T05:15:07.239Z,0.90
2023-02-18T05:18:10.470Z,0.60
2023-02-18T05:21:13.678Z,0.60
2023-02-18T05:24:17.012Z,0.50
2023-02-18T05:27:20.177Z,0.80
2023-02-18T05:30:23.472Z,1.00
2023-02-18T05:33:27.257Z,0.70
2023-02-18T05:36:30.464Z,0.60
2023-02-18T05:39:33.668Z,0.50
2023-02-18T05:42:36.860Z,0.70
2023-02-18T05:45:40.112Z,0.80
2023-02-18T05:48:43.337Z,1.00
2023-02-18T05:51:46.579Z,1.10
2023-02-18T05:54:49.879Z,0.60
2023-02-18T05:57:53.069Z,0.60
2023-02-18T06:00:56.306Z,0.70
2023-02-18T06:03:59.487Z,1.10
2023-02-18T06:07:02.787Z,1.20
2023-02-18T06:10:07.064Z,0.90
2023-02-18T06:13:10.246Z,1.30
2023-02-18T06:16:13.487Z,0.90
2023-02-18T06:19:16.814Z,1.10
2023-02-18T06:22:20.097Z,0.90
2023-02-18T06:25:23.522Z,2.20
2023-02-18T06:28:26.743Z,2.70
2023-02-18T06:31:30.538Z,2.30
2023-02-18T06:34:35.055Z,2.60
2023-02-18T06:37:38.299Z,1.80
2023-02-18T06:40:41.647Z,1.20
2023-02-18T06:43:44.907Z,1.50
2023-02-18T06:46:48.633Z,1.60
2023-02-18T06:52:47.944Z,2.20
2023-02-18T06:55:51.147Z,1.50
2023-02-18T06:58:54.326Z,1.20
2023-02-18T07:01:57.513Z,1.10
2023-02-18T07:14:06.024Z,1.40
2023-02-18T07:17:13.162Z,1.00
2023-02-18T07:20:28.980Z,1.40
2023-02-18T07:23:33.248Z,1.30
2023-02-18T07:26:36.678Z,1.10
2023-02-18T07:29:40.174Z,1.50
2023-02-18T07:32:43.785Z,1.30
2023-02-18T07:35:46.954Z,2.90
2023-02-18T07:38:50.539Z,1.40
2023-02-18T07:42:21.728Z,1.40
2023-02-18T07:45:27.205Z,1.70
2023-02-18T07:48:30.454Z,1.50
2023-02-18T07:51:33.925Z,1.10
2023-02-18T07:54:53.512Z,1.30
2023-02-18T07:58:02.288Z,1.50
2023-02-18T08:01:12.024Z,1.50
2023-02-18T08:04:16.023Z,2.10
2023-02-18T08:07:21.813Z,1.30
2023-02-18T08:10:25.071Z,2.00
2023-02-18T08:13:29.588Z,1.30
2023-02-18T08:16:32.921Z,1.10
2023-02-18T08:19:36.213Z,1.60
2023-02-18T08:22:39.437Z,1.90
2023-02-18T08:25:50.854Z,1.40
2023-02-18T08:28:54.108Z,1.30
2023-02-18T08:31:58.341Z,1.00
2023-02-18T08:35:01.722Z,1.20
2023-02-18T08:38:05.268Z,1.30
2023-02-18T08:41:09.470Z,1.30
2023-02-18T08:44:13.447Z,1.40
2023-02-18T08:48:19.549Z,1.40
2023-02-18T08:50:41.414Z,1.60
2023-02-18T08:53:47.082Z,1.60
2023-02-18T08:56:50.524Z,1.60
2023-02-18T08:59:53.875Z,1.60
2023-02-18T09:02:57.109Z,1.40
2023-02-18T09:06:00.870Z,1.80
2023-02-18T09:09:04.576Z,1.70
2023-02-18T09:12:08.713Z,1.40
2023-02-18T09:15:12.203Z,1.20
2023-02-18T09:18:15.573Z,1.50
2023-02-18T09:21:20.862Z,1.30
2023-02-18T09:24:24.944Z,1.30
2023-02-18T09:35:02.154Z,3.10
2023-02-18T09:38:04.019Z,1.80
2023-02-18T09:41:14.578Z,4.40
2023-02-18T09:44:51.916Z,1.60
2023-02-18T09:47:54.468Z,1.80
2023-02-18T09:50:57.009Z,5.90
2023-02-18T09:53:58.947Z,2.00
2023-02-18T09:57:24.668Z,1.30
2023-02-18T10:00:37.909Z,1.60
2023-02-18T10:03:40.234Z,1.60
2023-02-18T10:06:44.494Z,1.70
2023-02-18T10:09:48.186Z,1.40
2023-02-18T10:12:55.024Z,1.50
2023-02-18T10:15:59.663Z,1.40
2023-02-18T10:19:20.383Z,3.00
2023-02-18T10:22:24.618Z,1.50
2023-02-18T10:25:27.807Z,4.80
2023-02-18T10:28:31.209Z,3.20
2023-02-18T10:50:10.944Z,1.90
2023-02-18T10:53:37.840Z,2.00
2023-02-18T10:56:52.152Z,2.10
2023-02-18T11:00:01.387Z,2.50
2023-02-18T11:03:16.204Z,1.60
2023-02-18T11:06:40.806Z,1.70
2023-02-18T11:09:51.082Z,7.10
2023-02-18T11:13:16.985Z,4.10
2023-02-18T11:16:40.845Z,2.70
2023-02-18T11:19:44.147Z,3.30
2023-02-18T11:22:48.204Z,3.00
2023-02-18T11:26:07.937Z,2.30
2023-02-18T11:29:13.953Z,1.90
2023-02-18T11:32:18.592Z,2.90
2023-02-18T11:35:30.482Z,4.10
2023-02-18T11:38:46.319Z,4.10
2023-02-18T11:42:02.198Z,4.40
2023-02-18T11:45:05.947Z,3.20
2023-02-18T11:48:23.687Z,4.60
2023-02-18T11:51:33.813Z,3.90
2023-02-18T11:54:37.100Z,3.70
2023-02-18T11:57:45.424Z,3.50
2023-02-18T12:00:51.655Z,2.40
2023-02-18T12:04:09.150Z,3.80
2023-02-18T12:07:15.325Z,2.40
2023-02-18T12:10:28.303Z,2.50
2023-02-18T12:13:48.192Z,2.60
2023-02-18T12:17:09.826Z,3.60
2023-02-18T12:20:34.579Z,3.20
2023-02-18T12:24:06.775Z,2.20
2023-02-18T12:27:37.104Z,2.90
2023-02-18T12:30:43.246Z,6.00
2023-02-18T12:34:20.589Z,4.80
2023-02-18T12:37:51.662Z,3.90
2023-02-18T12:40:57.880Z,4.30
2023-02-18T12:44:06.883Z,4.40
2023-02-18T12:47:23.883Z,4.70
2023-02-18T12:50:40.216Z,4.00
2023-02-18T12:54:06.894Z,3.20
2023-02-18T12:57:24.236Z,4.30
2023-02-18T13:00:40.561Z,5.20
2023-02-18T13:04:21.100Z,4.50
2023-02-18T13:07:47.286Z,4.90
2023-02-18T13:11:27.786Z,5.60
2023-02-18T13:14:37.024Z,6.90
2023-02-18T13:17:43.158Z,6.40
2023-02-18T13:20:58.548Z,5.30
2023-02-18T13:24:06.180Z,5.60
2023-02-18T13:27:39.246Z,5.60
2023-02-18T13:30:49.446Z,5.40
2023-02-18T13:34:29.377Z,5.80
2023-02-18T13:37:35.699Z,6.40
2023-02-18T13:40:40.267Z,6.80
2023-02-18T13:43:47.974Z,11.40
2023-02-18T13:46:57.037Z,6.90
2023-02-18T13:50:25.938Z,9.50
2023-02-18T13:53:33.110Z,9.30
2023-02-18T13:56:42.811Z,9.80
2023-02-18T13:59:50.536Z,9.00
2023-02-18T14:02:59.948Z,9.00
2023-02-18T14:06:14.534Z,7.70
2023-02-18T14:09:17.729Z,7.40
2023-02-18T14:12:40.580Z,6.90
2023-02-18T14:15:56.670Z,11.30
2023-02-18T14:19:02.005Z,17.90
2023-02-18T14:22:31.135Z,27.10
2023-02-18T14:25:41.096Z,22.90
2023-02-18T14:28:47.280Z,27.60
2023-02-18T14:31:54.422Z,19.50
2023-02-18T14:35:36.246Z,17.90
2023-02-18T14:39:10.015Z,14.70
2023-02-18T14:42:46.677Z,11.80
2023-02-18T14:46:15.349Z,9.70
2023-02-18T14:49:32.975Z,10.00
2023-02-18T14:53:00.050Z,9.60
2023-02-18T14:56:06.003Z,12.20
2023-02-18T14:59:12.035Z,11.70
2023-02-18T15:02:24.080Z,13.70
2023-02-18T15:05:32.198Z,14.80
2023-02-18T15:13:28.558Z,18.00
2023-02-18T15:16:34.166Z,19.40
2023-02-18T15:19:49.460Z,18.70
2023-02-18T15:22:52.712Z,19.30
2023-02-18T15:25:56.271Z,18.70
2023-02-18T15:29:06.053Z,16.20
2023-02-18T15:32:25.278Z,18.00
2023-02-18T15:35:39.096Z,17.50
2023-02-18T15:38:43.940Z,19.60
2023-02-18T15:41:52.685Z,20.50
2023-02-18T15:45:04.513Z,27.30
2023-02-18T15:48:20.428Z,25.30
2023-02-18T15:51:28.766Z,24.10
2023-02-18T15:54:32.700Z,23.70
2023-02-18T15:57:37.613Z,20.40
2023-02-18T16:00:48.329Z,19.60
2023-02-18T16:03:52.225Z,20.90
2023-02-18T16:06:56.534Z,21.40
2023-02-18T16:10:25.968Z,19.80
2023-02-18T16:13:50.023Z,20.60
2023-02-18T16:17:12.725Z,16.80
2023-02-18T16:20:29.640Z,16.90
2023-02-18T16:23:46.088Z,18.70
2023-02-18T16:30:49.720Z,17.00
2023-02-18T16:34:01.322Z,16.70
2023-02-18T16:37:43.525Z,18.70
2023-02-18T16:44:57.267Z,16.50
2023-02-18T16:48:21.558Z,18.00
2023-02-18T16:51:32.710Z,17.10
2023-02-18T16:55:34.384Z,15.30
2023-02-18T17:02:04.080Z,17.60
2023-02-18T17:05:20.674Z,16.00
2023-02-18T17:08:30.139Z,14.40
2023-02-18T17:11:49.939Z,13.40
2023-02-18T17:18:11.033Z,12.10
2023-02-18T17:21:48.990Z,12.30
2023-02-18T17:24:52.666Z,12.60
2023-02-18T17:27:59.731Z,12.20
2023-02-18T17:31:04.055Z,12.10
2023-02-18T17:34:12.539Z,13.00
2023-02-18T17:37:15.869Z,11.70
2023-02-18T17:40:32.300Z,12.80
2023-02-18T17:43:35.743Z,12.40
2023-02-18T17:46:39.121Z,11.00
2023-02-18T17:49:42.431Z,11.30
2023-02-18T17:52:45.749Z,12.00
2023-02-18T17:55:49.453Z,10.70
2023-02-18T17:58:52.701Z,10.50
2023-02-18T18:01:55.920Z,9.90
2023-02-18T18:04:59.298Z,9.40
2023-02-18T18:08:03.860Z,8.70
2023-02-18T18:11:13.222Z,9.20
2023-02-18T18:14:16.402Z,7.20
2023-02-18T18:17:19.593Z,6.20
2023-02-18T18:20:24.576Z,5.10
2023-02-18T18:23:29.395Z,4.40
2023-02-18T18:26:32.709Z,4.60
2023-02-18T18:29:35.934Z,4.70
2023-02-18T18:32:39.257Z,4.80
2023-02-18T18:35:43.951Z,4.80
2023-02-18T18:38:48.181Z,5.00
2023-02-18T18:41:52.006Z,4.40
2023-02-18T18:44:55.293Z,3.80
2023-02-18T18:47:58.894Z,3.50
2023-02-18T18:51:02.443Z,3.70
2023-02-18T18:54:05.901Z,3.60
2023-02-18T18:57:09.104Z,3.40
2023-02-18T19:00:13.190Z,3.70
2023-02-18T19:03:17.100Z,3.70
2023-02-18T19:06:21.164Z,3.30
2023-02-18T19:09:24.478Z,3.40
2023-02-18T19:12:27.676Z,4.40
2023-02-18T19:15:31.337Z,4.60
2023-02-18T19:18:35.385Z,3.60
2023-02-18T19:21:38.864Z,2.90
2023-02-18T19:24:42.941Z,3.40
2023-02-18T19:27:47.225Z,3.40
2023-02-18T19:30:50.553Z,3.80
2023-02-18T19:33:54.035Z,3.70
2023-02-18T19:36:57.330Z,3.70
2023-02-18T19:40:00.893Z,3.30
2023-02-18T19:43:04.758Z,4.10
2023-02-18T19:46:10.435Z,3.80
2023-02-18T19:49:13.648Z,4.20
2023-02-18T19:52:17.763Z,3.50
2023-02-18T19:55:22.103Z,3.60
2023-02-18T19:58:25.418Z,3.80
2023-02-18T20:01:28.755Z,3.90
2023-02-18T20:04:31.960Z,4.00
2023-02-18T20:07:39.137Z,3.30
2023-02-18T20:10:42.530Z,3.30
2023-02-18T20:13:47.837Z,6.30
2023-02-18T20:16:51.217Z,4.00
2023-02-18T20:19:54.661Z,1.90
2023-02-18T20:22:57.870Z,1.60
2023-02-18T20:26:04.153Z,1.80
2023-02-18T20:29:07.413Z,1.70
2023-02-18T20:32:10.843Z,1.50
2023-02-18T20:35:14.120Z,1.50
2023-02-18T20:38:18.787Z,1.20
2023-02-18T20:41:23.734Z,1.10
2023-02-18T20:44:28.467Z,1.50
2023-02-18T20:47:31.744Z,1.80
2023-02-18T20:50:35.175Z,1.60
2023-02-18T20:53:40.261Z,1.30
2023-02-18T20:56:44.198Z,1.40
2023-02-18T20:59:47.452Z,1.40
2023-02-18T21:02:51.872Z,1.80
2023-02-18T21:05:57.129Z,2.50
2023-02-18T21:09:00.436Z,2.10
2023-02-18T21:12:04.171Z,2.10
2023-02-18T21:15:07.952Z,2.40
2023-02-18T21:18:11.264Z,1.90
2023-02-18T21:21:15.287Z,2.10
2023-02-18T21:24:18.770Z,1.70
2023-02-18T21:27:28.030Z,2.00
2023-02-18T21:30:36.838Z,1.60
2023-02-18T21:33:41.525Z,1.70
2023-02-18T21:36:44.934Z,1.40
2023-02-18T21:39:48.265Z,1.30
2023-02-18T21:42:51.716Z,1.20
2023-02-18T21:45:55.031Z,1.10
2023-02-18T21:49:02.280Z,1.20
2023-02-18T21:52:10.388Z,1.40
2023-02-18T21:55:14.208Z,1.30
2023-02-18T21:58:21.698Z,1.20
2023-02-18T22:01:27.624Z,1.70
2023-02-18T22:04:33.266Z,1.40
2023-02-18T22:07:36.573Z,1.70
2023-02-18T22:10:39.876Z,1.70
2023-02-18T22:13:44.061Z,1.70
2023-02-18T22:16:47.816Z,2.40
2023-02-18T22:19:51.120Z,2.70
2023-02-18T22:22:54.484Z,3.30
2023-02-18T22:25:57.864Z,2.50
2023-02-18T22:29:01.493Z,2.70
2023-02-18T22:32:05.251Z,1.70
2023-02-18T22:35:08.631Z,2.40
2023-02-18T22:38:11.900Z,2.30
2023-02-18T22:41:26.070Z,1.80
2023-02-18T22:44:29.610Z,1.80
2023-02-18T22:47:36.699Z,2.20
2023-02-18T22:50:39.941Z,2.20
2023-02-18T22:53:44.047Z,1.70
2023-02-18T22:56:47.844Z,1.60
2023-02-18T22:59:51.450Z,1.60
2023-02-18T23:02:54.928Z,1.10
2023-02-18T23:06:03.202Z,0.90
2023-02-18T23:09:10.166Z,1.10
2023-02-18T23:12:15.815Z,1.50
2023-02-18T23:15:19.097Z,1.70
2023-02-18T23:18:22.444Z,2.20
2023-02-18T23:21:25.797Z,2.30
2023-02-18T23:24:31.375Z,2.80
2023-02-18T23:27:34.623Z,2.40
2023-02-18T23:30:41.795Z,2.70
2023-02-18T23:33:47.201Z,2.20
2023-02-18T23:36:50.694Z,2.10
2023-02-18T23:39:54.054Z,2.30
2023-02-18T23:42:57.404Z,1.80
2023-02-18T23:46:00.839Z,1.80
2023-02-18T23:49:05.141Z,2.30
2023-02-18T23:52:08.454Z,1.90
2023-02-18T23:55:11.784Z,2.20
2023-02-18T23:58:15.136Z,2.30
